KCNC

Chariton Municipal Airport

Chariton, Iowa, USA
METAR KCNC 232315Z AUTO 30007KT 10SM OVC014 M03/M05 A3017 RMK AO2
Observed Flight Rules
Jan-23 @ 23:15 UTC (10 minutes ago) Marginal Visual Flight Rules
Wind Visibility Clouds
300° at 7 knots 10 miles
  • Overcast at 1,400' AGL
Temperatures Readings
Current -3°C / 27°F
Dewpoint -5°C / 23°F
Humidity 86%
Altimeter 30.17" Hg
Pressure 1022 hPa
Elevation 320
METAR KCNC 232315Z AUTO 30007KT 10SM OVC014 M03/M05 A3017 RMK AO2
Observed Flight Rules
Jan-23 @ 23:15 UTC
(10 minutes ago)
MVFR
Wind Visibility
300° at 7 knots 10 miles
Clouds
  • Overcast at 1,400' AGL
Temperature Dewpoint
-3°C / 27°F -5°C / 23°F
Humidity Altimeter Pressure
86% 30.17" Hg 1022 hPa